createdAt,value
2023-02-21T00:20:35.283Z,1023.84
2023-02-21T00:48:46.981Z,1023.77
2023-02-21T01:17:14.101Z,1023.6
2023-02-21T01:45:21.701Z,1023.55
2023-02-21T02:14:13.306Z,1023.41
2023-02-21T02:43:03.312Z,1023.15
2023-02-21T03:11:51.046Z,1022.98
2023-02-21T03:40:42.434Z,1022.88
2023-02-21T04:09:36.507Z,1022.83
2023-02-21T04:38:37.089Z,1022.83
2023-02-21T05:07:28.232Z,1022.93
2023-02-21T05:36:30.044Z,1022.93
2023-02-21T06:05:26.386Z,1022.77
2023-02-21T06:34:27.048Z,1022.82
2023-02-21T07:03:29.650Z,1022.93
2023-02-21T07:32:30.668Z,1023.06
2023-02-21T08:02:12.397Z,1022.92
2023-02-21T08:31:01.420Z,1022.92
2023-02-21T08:59:51.054Z,1022.92
2023-02-21T09:28:57.154Z,1022.59
2023-02-21T09:58:19.711Z,1022.26
2023-02-21T10:27:34.821Z,1022.12
2023-02-21T10:56:18.689Z,1021.93
2023-02-21T11:25:27.339Z,1021.57
2023-02-21T11:54:22.183Z,1020.89
2023-02-21T12:23:12.859Z,1020.24
2023-02-21T12:51:37.741Z,1019.71
2023-02-21T13:20:22.806Z,1019.13
2023-02-21T13:49:26.835Z,1018.74
2023-02-21T14:18:26.392Z,1018.28
2023-02-21T14:47:23.943Z,1018.09
2023-02-21T15:16:23.550Z,1017.76
2023-02-21T15:45:03.512Z,1017.56
2023-02-21T16:13:48.525Z,1017.47
2023-02-21T16:42:36.477Z,1017.53
2023-02-21T17:11:32.216Z,1017.52
2023-02-21T17:40:24.340Z,1017.65
2023-02-21T18:09:09.459Z,1017.8
2023-02-21T18:37:57.359Z,1017.59
2023-02-21T19:06:48.759Z,1017.39
2023-02-21T19:35:31.664Z,1017.3
2023-02-21T20:03:53.929Z,1017.57
2023-02-21T20:32:42.224Z,1017.64
2023-02-21T21:01:37.196Z,1017.47
2023-02-21T21:30:23.956Z,1017.58
2023-02-21T21:59:17.267Z,1017.59
2023-02-21T22:28:17.539Z,1017.35
2023-02-21T22:56:33.365Z,1017.17
2023-02-21T23:24:47.574Z,1017
2023-02-21T23:53:11.045Z,1016.83
